createdAt,value
2017-10-09T00:01:00.775Z,87.18
2017-10-09T00:02:09.607Z,87.56
2017-10-09T00:03:18.443Z,87.65
2017-10-09T00:04:27.270Z,87.46
2017-10-09T00:05:36.103Z,87.75
2017-10-09T00:06:44.926Z,87.37
2017-10-09T00:07:53.759Z,87.65
2017-10-09T00:09:02.590Z,87.65
2017-10-09T00:10:11.427Z,87.94
2017-10-09T00:11:20.258Z,88.04
2017-10-09T00:12:29.089Z,88.23
2017-10-09T00:13:37.918Z,88.32
2017-10-09T00:14:46.745Z,88.6
2017-10-09T00:15:55.577Z,88.51
2017-10-09T00:17:04.408Z,88.42
2017-10-09T00:18:13.241Z,88.42
2017-10-09T00:19:22.072Z,88.51
2017-10-09T00:20:30.903Z,88.13
2017-10-09T00:21:39.735Z,88.13
2017-10-09T00:22:48.571Z,88.04
2017-10-09T00:23:57.402Z,87.94
2017-10-09T00:25:06.228Z,88.32
2017-10-09T00:26:15.059Z,88.51
2017-10-09T00:27:23.894Z,88.51
2017-10-09T00:28:32.724Z,88.6
2017-10-09T00:29:41.554Z,88.13
2017-10-09T00:30:50.388Z,88.89
2017-10-09T00:31:59.218Z,88.79
2017-10-09T00:33:08.050Z,88.79
2017-10-09T00:34:16.881Z,88.79
2017-10-09T00:35:25.714Z,88.6
2017-10-09T00:36:34.542Z,88.89
2017-10-09T00:37:43.379Z,88.7
2017-10-09T00:38:52.208Z,88.89
2017-10-09T00:40:01.040Z,88.75
2017-10-09T00:41:09.872Z,88.85
2017-10-09T00:42:18.698Z,89.08
2017-10-09T00:43:27.531Z,88.89
2017-10-09T00:44:36.365Z,89.04
2017-10-09T00:45:45.199Z,88.89
2017-10-09T00:46:54.025Z,88.89
2017-10-09T00:48:02.853Z,88.85
2017-10-09T00:49:11.683Z,88.85
2017-10-09T00:50:20.515Z,88.79
2017-10-09T00:51:29.355Z,88.79
2017-10-09T00:52:38.179Z,88.75
2017-10-09T00:53:47.005Z,88.51
2017-10-09T00:54:55.831Z,88.79
2017-10-09T00:56:04.664Z,89.18
2017-10-09T00:57:13.493Z,89.18
2017-10-09T00:58:22.332Z,89.08
2017-10-09T00:59:31.160Z,89.18
2017-10-09T01:00:39.991Z,89.27
2017-10-09T01:01:48.821Z,89.23
2017-10-09T01:02:57.656Z,89.18
2017-10-09T01:04:06.481Z,88.99
2017-10-09T01:05:15.318Z,89.08
2017-10-09T01:06:24.148Z,88.99
2017-10-09T01:07:32.980Z,88.79
2017-10-09T01:08:41.818Z,88.79
2017-10-09T01:09:50.645Z,89.37
2017-10-09T01:10:59.473Z,89.37
2017-10-09T01:12:08.306Z,88.85
2017-10-09T01:13:17.139Z,89.04
2017-10-09T01:14:25.960Z,89.04
2017-10-09T01:15:34.790Z,88.85
2017-10-09T01:16:43.624Z,88.94
2017-10-09T01:17:52.449Z,88.94
2017-10-09T01:19:01.283Z,89.23
2017-10-09T01:20:10.108Z,89.23
2017-10-09T01:21:18.938Z,89.04
2017-10-09T01:22:27.770Z,89.04
2017-10-09T01:23:36.601Z,88.85
2017-10-09T01:24:45.428Z,89.14
2017-10-09T01:25:54.268Z,89.23
2017-10-09T01:27:03.098Z,89.51
2017-10-09T01:28:11.926Z,89.7
2017-10-09T01:29:20.761Z,89.51
2017-10-09T01:30:29.595Z,89.42
2017-10-09T01:31:38.420Z,89.51
2017-10-09T01:32:47.254Z,89.32
2017-10-09T01:33:56.082Z,89.32
2017-10-09T01:35:04.914Z,89.89
2017-10-09T01:36:13.744Z,89.61
2017-10-09T01:37:22.576Z,89.89
2017-10-09T01:38:31.402Z,89.14
2017-10-09T01:39:40.231Z,89.8
2017-10-09T01:40:49.061Z,89.7
2017-10-09T01:41:57.892Z,89.7
2017-10-09T01:43:06.728Z,89.89
2017-10-09T01:44:15.556Z,89.99
2017-10-09T01:45:24.384Z,89.42
2017-10-09T01:46:33.216Z,90.08
2017-10-09T01:47:42.044Z,90.18
2017-10-09T01:48:50.875Z,89.99
2017-10-09T01:49:59.706Z,89.99
2017-10-09T01:51:08.533Z,89.99
2017-10-09T01:52:17.363Z,90.56
2017-10-09T01:53:26.194Z,90.47
2017-10-09T01:54:35.025Z,90.28
2017-10-09T01:55:43.858Z,90.94
2017-10-09T01:56:52.691Z,90.66
2017-10-09T01:58:01.523Z,90.56
2017-10-09T01:59:10.346Z,90.28
2017-10-09T02:00:19.181Z,89.99
2017-10-09T02:01:28.016Z,90.08
2017-10-09T02:02:36.847Z,90.18
2017-10-09T02:03:45.674Z,89.89
2017-10-09T02:04:54.503Z,90.37
2017-10-09T02:06:03.335Z,89.89
2017-10-09T02:07:12.173Z,91.03
2017-10-09T02:08:21.004Z,90.84
2017-10-09T02:09:29.832Z,90.84
2017-10-09T02:10:38.661Z,90.66
2017-10-09T02:11:47.484Z,90.37
2017-10-09T02:12:56.320Z,90.84
2017-10-09T02:14:05.156Z,90.66
2017-10-09T02:15:13.980Z,90.47
2017-10-09T02:16:22.811Z,90.94
2017-10-09T02:17:31.644Z,90.66
2017-10-09T02:18:40.473Z,90.84
2017-10-09T02:19:49.305Z,91.03
2017-10-09T02:20:58.138Z,90.84
2017-10-09T02:22:06.966Z,91.13
2017-10-09T02:23:15.795Z,91.32
2017-10-09T02:24:24.625Z,91.03
2017-10-09T02:25:33.457Z,91.42
2017-10-09T02:26:42.293Z,91.22
2017-10-09T02:27:51.121Z,91.66
2017-10-09T02:28:59.947Z,91.51
2017-10-09T02:30:08.780Z,91.42
2017-10-09T02:31:17.614Z,91.61
2017-10-09T02:32:26.763Z,91.42
2017-10-09T02:33:35.593Z,91.51
2017-10-09T02:34:44.749Z,91.7
2017-10-09T02:35:53.575Z,91.61
2017-10-09T02:37:02.407Z,91.61
2017-10-09T02:38:11.238Z,91.56
2017-10-09T02:39:20.068Z,91.56
2017-10-09T02:40:28.899Z,91.61
2017-10-09T02:41:37.728Z,91.89
2017-10-09T02:42:46.559Z,91.89
2017-10-09T02:43:55.390Z,91.28
2017-10-09T02:45:04.219Z,91.37
2017-10-09T02:46:13.045Z,91.28
2017-10-09T02:47:21.876Z,91.7
2017-10-09T02:48:30.709Z,91.66
2017-10-09T02:49:39.537Z,91.47
2017-10-09T02:50:48.372Z,91.56
2017-10-09T02:51:57.198Z,92.22
2017-10-09T02:53:06.027Z,91.66
2017-10-09T02:54:14.854Z,91.85
2017-10-09T02:55:23.686Z,92.51
2017-10-09T02:56:32.522Z,91.66
2017-10-09T02:57:41.347Z,92.22
2017-10-09T02:58:50.177Z,92.32
2017-10-09T02:59:59.006Z,92.03
2017-10-09T03:01:07.833Z,92.22
2017-10-09T03:02:16.671Z,92.22
2017-10-09T03:03:25.497Z,92.03
2017-10-09T03:04:34.320Z,92.13
2017-10-09T03:05:43.152Z,92.03
2017-10-09T03:06:51.978Z,92.7
2017-10-09T03:08:00.810Z,92.8
2017-10-09T03:09:09.639Z,92.61
2017-10-09T03:10:18.473Z,92.7
2017-10-09T03:11:27.301Z,92.41
2017-10-09T03:12:36.134Z,92.61
2017-10-09T03:13:44.965Z,92.22
2017-10-09T03:14:53.791Z,92.36
2017-10-09T03:16:02.623Z,92.56
2017-10-09T03:17:11.449Z,92.61
2017-10-09T03:18:20.282Z,92.51
2017-10-09T03:19:29.114Z,92.41
2017-10-09T03:20:37.944Z,92.8
2017-10-09T03:21:46.778Z,92.84
2017-10-09T03:22:55.605Z,92.89
2017-10-09T03:24:04.432Z,92.8
2017-10-09T03:25:13.256Z,92.32
2017-10-09T03:26:22.090Z,92.56
2017-10-09T03:27:30.921Z,92.32
2017-10-09T03:28:39.748Z,92.7
2017-10-09T03:29:48.577Z,92.61
2017-10-09T03:30:57.411Z,92.7
2017-10-09T03:32:06.242Z,92.51
2017-10-09T03:33:15.072Z,93.08
2017-10-09T03:34:23.901Z,93.08
2017-10-09T03:35:32.731Z,93.08
2017-10-09T03:36:41.556Z,93.08
2017-10-09T03:37:50.389Z,93.08
2017-10-09T03:38:59.217Z,92.32
2017-10-09T03:40:08.052Z,92.51
2017-10-09T03:41:16.884Z,92.41
2017-10-09T03:42:26.035Z,93.08
2017-10-09T03:43:34.865Z,93.08
2017-10-09T03:44:44.016Z,93.08
2017-10-09T03:45:52.849Z,93.18
2017-10-09T03:47:01.676Z,93.08
2017-10-09T03:48:10.505Z,93.08
2017-10-09T03:49:19.335Z,93.18
2017-10-09T03:50:28.168Z,92.7
2017-10-09T03:51:36.998Z,92.99
2017-10-09T03:52:45.831Z,92.8
2017-10-09T03:53:54.657Z,92.99
2017-10-09T03:55:03.485Z,93.46
2017-10-09T03:56:12.316Z,93.55
2017-10-09T03:57:21.150Z,93.55
2017-10-09T03:58:29.977Z,93.75
2017-10-09T03:59:38.807Z,93.37
2017-10-09T04:00:47.634Z,93.55
2017-10-09T04:01:56.470Z,93.46
2017-10-09T04:03:05.298Z,93.55
2017-10-09T04:04:14.129Z,93.27
2017-10-09T04:05:22.960Z,93.37
2017-10-09T04:06:31.791Z,93.27
2017-10-09T04:07:40.618Z,93.37
2017-10-09T04:08:49.446Z,93.37
2017-10-09T04:09:58.277Z,93.65
2017-10-09T04:11:07.099Z,93.55
2017-10-09T04:12:15.929Z,93.46
2017-10-09T04:13:24.763Z,93.55
2017-10-09T04:14:33.590Z,93.75
2017-10-09T04:15:42.421Z,93.65
2017-10-09T04:16:51.246Z,93.27
2017-10-09T04:18:00.076Z,93.46
2017-10-09T04:19:08.908Z,93.46
2017-10-09T04:20:17.743Z,93.37
2017-10-09T04:21:26.572Z,93.18
2017-10-09T04:22:35.402Z,93.65
2017-10-09T04:23:44.229Z,93.18
2017-10-09T04:24:53.057Z,93.37
2017-10-09T04:26:01.892Z,93.55
2017-10-09T04:27:10.723Z,93.55
2017-10-09T04:28:19.548Z,93.46
2017-10-09T04:29:28.377Z,93.65
2017-10-09T04:30:37.207Z,93.55
2017-10-09T04:31:46.040Z,93.75
2017-10-09T04:32:54.869Z,93.94
2017-10-09T04:34:03.701Z,94.13
2017-10-09T04:35:12.530Z,93.94
2017-10-09T04:36:21.360Z,94.13
2017-10-09T04:37:30.187Z,94.22
2017-10-09T04:38:39.017Z,94.03
2017-10-09T04:39:47.845Z,94.32
2017-10-09T04:40:56.672Z,93.94
2017-10-09T04:42:05.507Z,93.94
2017-10-09T04:43:14.333Z,93.84
2017-10-09T04:44:23.167Z,94.13
2017-10-09T04:45:31.990Z,94.03
2017-10-09T04:46:40.820Z,94.22
2017-10-09T04:47:49.651Z,93.37
2017-10-09T04:48:58.484Z,93.37
2017-10-09T04:50:07.311Z,94.22
2017-10-09T04:51:16.143Z,94.03
2017-10-09T04:52:24.970Z,94.03
2017-10-09T04:53:33.800Z,94.22
2017-10-09T04:54:42.634Z,94.42
2017-10-09T04:55:51.460Z,94.22
2017-10-09T04:57:00.291Z,94.22
2017-10-09T04:58:09.450Z,94.13
2017-10-09T04:59:18.279Z,93.94
2017-10-09T05:00:27.107Z,94.32
2017-10-09T05:01:35.934Z,94.79
2017-10-09T05:02:45.088Z,94.22
2017-10-09T05:03:53.919Z,94.22
2017-10-09T05:05:02.754Z,94.6
2017-10-09T05:06:11.578Z,94.7
2017-10-09T05:07:20.409Z,94.42
2017-10-09T05:08:29.240Z,94.6
2017-10-09T05:09:38.075Z,94.7
2017-10-09T05:10:46.901Z,94.7
2017-10-09T05:11:55.729Z,94.42
2017-10-09T05:13:04.878Z,94.51
2017-10-09T05:14:13.710Z,94.32
2017-10-09T05:15:22.593Z,94.51
2017-10-09T05:16:31.423Z,94.42
2017-10-09T05:17:40.252Z,94.42
2017-10-09T05:18:49.081Z,94.89
2017-10-09T05:19:57.908Z,94.6
2017-10-09T05:21:06.737Z,94.7
2017-10-09T05:22:15.892Z,94.7
2017-10-09T05:23:24.718Z,94.6
2017-10-09T05:24:33.547Z,94.7
2017-10-09T05:25:42.379Z,94.42
2017-10-09T05:26:51.213Z,94.6
2017-10-09T05:28:00.041Z,94.7
2017-10-09T05:29:08.873Z,94.42
2017-10-09T05:30:17.698Z,94.42
2017-10-09T05:31:26.529Z,94.42
2017-10-09T05:32:35.362Z,94.42
2017-10-09T05:33:44.197Z,94.22
2017-10-09T05:34:53.023Z,94.6
2017-10-09T05:36:01.852Z,94.42
2017-10-09T05:37:10.681Z,94.89
2017-10-09T05:38:19.509Z,95.08
2017-10-09T05:39:28.343Z,94.89
2017-10-09T05:40:37.170Z,94.98
2017-10-09T05:41:45.998Z,94.79
2017-10-09T05:42:54.826Z,94.89
2017-10-09T05:44:03.683Z,94.6
2017-10-09T05:45:12.487Z,94.6
2017-10-09T05:46:21.648Z,95.17
2017-10-09T05:47:30.482Z,94.89
2017-10-09T05:48:39.632Z,94.6
2017-10-09T05:49:48.468Z,94.98
2017-10-09T05:50:57.295Z,94.79
2017-10-09T05:52:06.123Z,94.98
2017-10-09T05:53:14.951Z,95.08
2017-10-09T05:54:23.779Z,95.08
2017-10-09T05:55:32.613Z,95.08
2017-10-09T05:56:41.444Z,94.98
2017-10-09T05:57:50.271Z,95.08
2017-10-09T05:58:59.107Z,94.98
2017-10-09T06:00:07.937Z,95.27
2017-10-09T06:01:16.762Z,94.89
2017-10-09T06:02:25.596Z,95.08
2017-10-09T06:03:34.421Z,95.27
2017-10-09T06:04:43.254Z,94.98
2017-10-09T06:05:52.081Z,95.08
2017-10-09T06:07:00.913Z,94.79
2017-10-09T06:08:09.738Z,94.51
2017-10-09T06:09:18.571Z,94.51
2017-10-09T06:10:27.404Z,94.98
2017-10-09T06:11:36.233Z,94.7
2017-10-09T06:12:45.070Z,94.79
2017-10-09T06:13:54.217Z,94.89
2017-10-09T06:15:03.048Z,94.89
2017-10-09T06:16:11.880Z,94.7
2017-10-09T06:17:20.714Z,94.89
2017-10-09T06:18:29.543Z,94.79
2017-10-09T06:19:38.373Z,94.42
2017-10-09T06:20:47.201Z,94.79
2017-10-09T06:21:56.026Z,94.51
2017-10-09T06:23:04.860Z,94.65
2017-10-09T06:24:13.692Z,95.08
2017-10-09T06:25:22.522Z,94.22
2017-10-09T06:26:31.351Z,94.42
2017-10-09T06:27:40.181Z,94.74
2017-10-09T06:28:49.005Z,94.6
2017-10-09T06:29:57.835Z,94.51
2017-10-09T06:31:06.669Z,94.7
2017-10-09T06:32:15.493Z,94.13
2017-10-09T06:33:24.324Z,94.7
2017-10-09T06:34:33.154Z,94.7
2017-10-09T06:35:41.984Z,94.65
2017-10-09T06:36:50.817Z,94.46
2017-10-09T06:37:59.650Z,94.32
2017-10-09T06:39:08.809Z,94.18
2017-10-09T06:40:17.639Z,94.03
2017-10-09T06:41:26.472Z,94.46
2017-10-09T06:42:35.298Z,93.75
2017-10-09T06:43:44.125Z,94.03
2017-10-09T06:44:52.961Z,94.42
2017-10-09T06:46:01.786Z,94.84
2017-10-09T06:47:10.620Z,94.65
2017-10-09T06:48:19.446Z,94.51
2017-10-09T06:49:28.276Z,94.6
2017-10-09T06:50:37.102Z,94.79
2017-10-09T06:51:45.942Z,94.42
2017-10-09T06:52:54.767Z,94.74
2017-10-09T06:54:03.598Z,94.74
2017-10-09T06:55:12.431Z,94.74
2017-10-09T06:56:21.260Z,94.84
2017-10-09T06:57:30.088Z,94.27
2017-10-09T06:58:38.920Z,94.46
2017-10-09T06:59:47.752Z,94.84
2017-10-09T07:00:56.900Z,94.84
2017-10-09T07:02:06.063Z,94.27
2017-10-09T07:03:14.886Z,94.46
2017-10-09T07:04:23.723Z,94.74
2017-10-09T07:05:32.551Z,94.74
2017-10-09T07:06:41.377Z,94.27
2017-10-09T07:07:50.210Z,94.18
2017-10-09T07:08:59.040Z,94.46
2017-10-09T07:10:07.868Z,94.27
2017-10-09T07:11:16.701Z,94.18
2017-10-09T07:12:25.533Z,94.27
2017-10-09T07:13:34.359Z,94.27
2017-10-09T07:14:43.188Z,94.08
2017-10-09T07:15:52.017Z,94.46
2017-10-09T07:17:00.847Z,94.27
2017-10-09T07:18:09.677Z,93.98
2017-10-09T07:19:18.506Z,94.18
2017-10-09T07:20:27.338Z,94.27
2017-10-09T07:21:36.166Z,94.08
2017-10-09T07:22:44.999Z,93.89
2017-10-09T07:23:53.832Z,94.37
2017-10-09T07:25:02.663Z,94.27
2017-10-09T07:26:11.491Z,94.27
2017-10-09T07:27:20.323Z,93.98
2017-10-09T07:28:29.473Z,93.98
2017-10-09T07:29:38.304Z,94.27
2017-10-09T07:30:47.141Z,94.18
2017-10-09T07:31:55.969Z,93.89
2017-10-09T07:33:04.806Z,93.41
2017-10-09T07:34:13.632Z,93.7
2017-10-09T07:35:22.458Z,93.7
2017-10-09T07:36:31.295Z,93.51
2017-10-09T07:37:40.123Z,93.23
2017-10-09T07:38:48.950Z,93.46
2017-10-09T07:39:57.782Z,93.27
2017-10-09T07:41:06.610Z,92.56
2017-10-09T07:42:15.442Z,92.51
2017-10-09T07:43:24.273Z,92.89
2017-10-09T07:44:33.107Z,93.18
2017-10-09T07:45:41.932Z,93.18
2017-10-09T07:46:50.764Z,92.7
2017-10-09T07:47:59.593Z,92.79
2017-10-09T07:49:08.425Z,92.7
2017-10-09T07:50:17.256Z,91.84
2017-10-09T07:51:26.089Z,92.22
2017-10-09T07:52:34.919Z,92.32
2017-10-09T07:53:43.752Z,92.6
2017-10-09T07:54:52.582Z,91.56
2017-10-09T07:56:01.414Z,91.56
2017-10-09T07:57:10.250Z,92.41
2017-10-09T07:58:19.082Z,91.56
2017-10-09T07:59:28.260Z,91.56
2017-10-09T08:00:37.085Z,91.56
2017-10-09T08:01:45.921Z,91.37
2017-10-09T08:02:54.748Z,91.75
2017-10-09T08:04:03.585Z,91.08
2017-10-09T08:05:12.737Z,90.99
2017-10-09T08:06:21.567Z,90.89
2017-10-09T08:07:30.395Z,91.27
2017-10-09T08:08:39.226Z,90.89
2017-10-09T08:09:48.059Z,90.65
2017-10-09T08:10:56.891Z,90.8
2017-10-09T08:12:06.061Z,90.7
2017-10-09T08:13:14.886Z,90.99
2017-10-09T08:14:23.715Z,90.27
2017-10-09T08:15:32.549Z,90.17
2017-10-09T08:16:41.378Z,90.56
2017-10-09T08:17:50.209Z,90.17
2017-10-09T08:18:59.038Z,90.08
2017-10-09T08:20:07.868Z,89.61
2017-10-09T08:21:16.695Z,89.32
2017-10-09T08:22:25.529Z,89.89
2017-10-09T08:23:34.360Z,89.32
2017-10-09T08:24:43.187Z,89.7
2017-10-09T08:25:52.022Z,88.93
2017-10-09T08:27:00.849Z,89.03
2017-10-09T08:28:09.682Z,89.03
2017-10-09T08:29:18.519Z,89.03
2017-10-09T08:30:27.345Z,89.03
2017-10-09T08:31:36.176Z,89.03
2017-10-09T08:32:45.008Z,88.84
2017-10-09T08:33:53.843Z,88.93
2017-10-09T08:35:02.677Z,88.84
2017-10-09T08:36:11.502Z,89.03
2017-10-09T08:37:20.335Z,89.22
2017-10-09T08:38:29.161Z,88.98
2017-10-09T08:39:37.997Z,89.46
2017-10-09T08:40:46.824Z,89.26
2017-10-09T08:41:55.650Z,88.41
2017-10-09T08:43:04.801Z,88.41
2017-10-09T08:44:13.640Z,88.03
2017-10-09T08:45:22.474Z,87.84
2017-10-09T08:46:31.303Z,88.22
2017-10-09T08:47:40.132Z,88.22
2017-10-09T08:48:48.958Z,88.22
2017-10-09T08:49:57.793Z,87.93
2017-10-09T08:51:06.628Z,87.46
2017-10-09T08:52:15.459Z,86.69
2017-10-09T08:53:24.286Z,87.55
2017-10-09T08:54:33.115Z,87.46
2017-10-09T08:55:41.968Z,86.79
2017-10-09T08:56:50.779Z,86.88
2017-10-09T08:57:59.606Z,86.88
2017-10-09T08:59:08.442Z,86.88
2017-10-09T09:00:17.269Z,86.98
2017-10-09T09:01:26.105Z,87.46
2017-10-09T09:02:34.930Z,87.17
2017-10-09T09:03:43.764Z,86.79
2017-10-09T09:04:52.600Z,86.69
2017-10-09T09:06:01.429Z,86.88
2017-10-09T09:07:10.256Z,86.88
2017-10-09T09:08:19.092Z,86.69
2017-10-09T09:09:27.923Z,86.26
2017-10-09T09:10:36.755Z,86.41
2017-10-09T09:11:45.589Z,86.41
2017-10-09T09:12:54.420Z,86.36
2017-10-09T09:14:03.245Z,86.55
2017-10-09T09:15:12.081Z,86.16
2017-10-09T09:16:20.914Z,86.55
2017-10-09T09:17:29.751Z,86.45
2017-10-09T09:18:38.581Z,86.07
2017-10-09T09:19:47.412Z,86.16
2017-10-09T09:20:56.244Z,86.55
2017-10-09T09:22:05.078Z,86.45
2017-10-09T09:23:13.906Z,86.16
2017-10-09T09:24:22.739Z,85.88
2017-10-09T09:25:31.570Z,85.12
2017-10-09T09:26:40.400Z,85.31
2017-10-09T09:27:49.230Z,85.31
2017-10-09T09:28:58.116Z,84.74
2017-10-09T09:30:06.945Z,84.16
2017-10-09T09:31:15.781Z,84.07
2017-10-09T09:32:24.612Z,83.69
2017-10-09T09:33:33.444Z,83.16
2017-10-09T09:34:42.276Z,82.87
2017-10-09T09:35:51.104Z,83.06
2017-10-09T09:36:59.938Z,82.78
2017-10-09T09:38:08.769Z,82.97
2017-10-09T09:39:17.603Z,82.59
2017-10-09T09:40:26.433Z,81.54
2017-10-09T09:41:35.263Z,81.82
2017-10-09T09:42:44.096Z,82.11
2017-10-09T09:43:52.927Z,81.92
2017-10-09T09:45:01.762Z,80.96
2017-10-09T09:46:10.592Z,80.39
2017-10-09T09:47:19.752Z,80.3
2017-10-09T09:48:28.584Z,79.91
2017-10-09T09:49:37.413Z,79.63
2017-10-09T09:50:46.238Z,79.82
2017-10-09T09:51:55.075Z,78.67
2017-10-09T09:53:03.902Z,77.82
2017-10-09T09:54:12.741Z,76.86
2017-10-09T09:55:21.570Z,76.77
2017-10-09T09:56:30.404Z,76.1
2017-10-09T09:57:39.234Z,75.72
2017-10-09T09:58:48.070Z,74.67
2017-10-09T09:59:56.900Z,74.67
2017-10-09T10:01:05.738Z,74.29
2017-10-09T10:02:14.570Z,74.57
2017-10-09T10:03:23.396Z,74.04
2017-10-09T10:04:32.226Z,73.85
2017-10-09T10:05:41.063Z,73.47
2017-10-09T10:06:49.891Z,73.75
2017-10-09T10:07:58.722Z,73.66
2017-10-09T10:09:07.554Z,73.47
2017-10-09T10:10:16.387Z,72.99
2017-10-09T10:11:25.219Z,72.61
2017-10-09T10:12:34.052Z,72.71
2017-10-09T10:13:42.887Z,72.61
2017-10-09T10:14:51.713Z,72.23
2017-10-09T10:16:00.542Z,72.42
2017-10-09T10:17:09.373Z,72.8
2017-10-09T10:18:18.205Z,72.13
2017-10-09T10:19:27.040Z,71.84
2017-10-09T10:20:35.872Z,71.94
2017-10-09T10:21:44.704Z,72.23
2017-10-09T10:22:53.536Z,72.42
2017-10-09T10:24:02.374Z,72.61
2017-10-09T10:25:11.205Z,72.13
2017-10-09T10:26:20.035Z,72.03
2017-10-09T10:27:28.870Z,71.84
2017-10-09T10:28:37.700Z,71.94
2017-10-09T10:29:46.537Z,72.13
2017-10-09T10:30:55.370Z,71.98
2017-10-09T10:32:04.205Z,72.07
2017-10-09T10:33:13.036Z,72.55
2017-10-09T10:34:21.871Z,72.74
2017-10-09T10:35:30.706Z,72.83
2017-10-09T10:36:39.537Z,72.36
2017-10-09T10:37:48.368Z,72.36
2017-10-09T10:38:57.196Z,72.93
2017-10-09T10:40:06.039Z,72.93
2017-10-09T10:41:15.191Z,73.03
2017-10-09T10:42:24.022Z,72.93
2017-10-09T10:43:32.856Z,73.03
2017-10-09T10:44:41.687Z,72.93
2017-10-09T10:45:50.514Z,73.12
2017-10-09T10:46:59.350Z,73.22
2017-10-09T10:48:08.186Z,73.32
2017-10-09T10:49:17.027Z,73.79
2017-10-09T10:50:25.852Z,73.69
2017-10-09T10:51:34.689Z,73.88
2017-10-09T10:52:43.516Z,73.79
2017-10-09T10:53:52.349Z,73.69
2017-10-09T10:55:01.180Z,73.32
2017-10-09T10:56:10.015Z,73.6
2017-10-09T10:57:18.847Z,73.6
2017-10-09T10:58:27.680Z,73.69
2017-10-09T10:59:36.512Z,73.6
2017-10-09T11:00:45.348Z,73.63
2017-10-09T11:01:54.183Z,74.17
2017-10-09T11:03:03.015Z,73.83
2017-10-09T11:04:11.844Z,73.73
2017-10-09T11:05:20.681Z,73.63
2017-10-09T11:06:29.511Z,72.87
2017-10-09T11:07:38.350Z,72.58
2017-10-09T11:08:47.184Z,72.11
2017-10-09T11:09:56.022Z,72.11
2017-10-09T11:11:04.852Z,71.63
2017-10-09T11:12:13.684Z,70.96
2017-10-09T11:13:22.518Z,71.06
2017-10-09T11:14:31.353Z,70.77
2017-10-09T11:15:40.190Z,70.29
2017-10-09T11:16:49.021Z,69.82
2017-10-09T11:17:57.851Z,69.53
2017-10-09T11:19:06.689Z,69.62
2017-10-09T11:20:15.520Z,69.15
2017-10-09T11:21:24.353Z,68.96
2017-10-09T11:22:33.184Z,68.67
2017-10-09T11:23:42.016Z,68.96
2017-10-09T11:24:50.844Z,68.67
2017-10-09T11:25:59.676Z,69.24
2017-10-09T11:27:08.516Z,69.43
2017-10-09T11:28:17.345Z,69.43
2017-10-09T11:29:26.180Z,70.01
2017-10-09T11:30:35.011Z,69.53
2017-10-09T11:31:43.846Z,69.91
2017-10-09T11:32:52.679Z,69.82
2017-10-09T11:34:01.511Z,69.72
2017-10-09T11:35:10.346Z,69.82
2017-10-09T11:36:19.177Z,69.43
2017-10-09T11:37:28.014Z,68.67
2017-10-09T11:38:36.841Z,67.62
2017-10-09T11:39:45.680Z,67.24
2017-10-09T11:40:54.516Z,66.85
2017-10-09T11:42:03.676Z,67.65
2017-10-09T11:43:12.510Z,67.84
2017-10-09T11:44:21.342Z,67.94
2017-10-09T11:45:30.174Z,67.84
2017-10-09T11:46:39.006Z,68.41
2017-10-09T11:47:47.838Z,68.7
2017-10-09T11:48:56.672Z,68.7
2017-10-09T11:50:05.503Z,68.23
2017-10-09T11:51:14.339Z,68.13
2017-10-09T11:52:23.172Z,68.7
2017-10-09T11:53:32.001Z,68.8
2017-10-09T11:54:40.835Z,69.27
2017-10-09T11:55:49.672Z,68.51
2017-10-09T11:56:58.504Z,68.32
2017-10-09T11:58:07.336Z,68.13
2017-10-09T11:59:16.171Z,68.41
2017-10-09T12:00:25.005Z,67.94
2017-10-09T12:01:33.840Z,67.97
2017-10-09T12:02:42.675Z,67.94
2017-10-09T12:03:51.513Z,67.84
2017-10-09T12:05:00.342Z,67.84
2017-10-09T12:06:09.180Z,68.35
2017-10-09T12:07:18.015Z,68.45
2017-10-09T12:08:26.851Z,67.97
2017-10-09T12:09:35.680Z,67.49
2017-10-09T12:10:44.512Z,67.69
2017-10-09T12:11:53.663Z,67.11
2017-10-09T12:13:02.501Z,66.83
2017-10-09T12:14:11.336Z,66.54
2017-10-09T12:15:20.166Z,66.63
2017-10-09T12:16:28.998Z,66.54
2017-10-09T12:17:37.839Z,67.46
2017-10-09T12:18:46.672Z,67.21
2017-10-09T12:19:55.510Z,66.41
2017-10-09T12:21:04.665Z,66.54
2017-10-09T12:22:13.494Z,66.6
2017-10-09T12:23:22.324Z,66.5
2017-10-09T12:24:31.187Z,66.63
2017-10-09T12:25:39.996Z,66.44
2017-10-09T12:26:48.830Z,66.7
2017-10-09T12:27:57.661Z,66.5
2017-10-09T12:29:06.488Z,66.99
2017-10-09T12:30:15.326Z,67.3
2017-10-09T12:31:24.168Z,67.3
2017-10-09T12:32:32.996Z,67.02
2017-10-09T12:33:41.831Z,66.44
2017-10-09T12:34:50.664Z,66.16
2017-10-09T12:35:59.497Z,66.25
2017-10-09T12:37:08.336Z,65.58
2017-10-09T12:38:17.174Z,65.39
2017-10-09T12:39:26.004Z,64.98
2017-10-09T12:40:34.835Z,64.31
2017-10-09T12:41:43.674Z,64.31
2017-10-09T12:42:52.506Z,63.64
2017-10-09T12:44:01.343Z,63.26
2017-10-09T12:45:10.173Z,63.35
2017-10-09T12:46:19.005Z,63.39
2017-10-09T12:47:27.838Z,63.45
2017-10-09T12:48:36.672Z,63.64
2017-10-09T12:49:45.510Z,63.73
2017-10-09T12:50:54.348Z,63.73
2017-10-09T12:52:03.185Z,63.93
2017-10-09T12:53:12.016Z,63.93
2017-10-09T12:54:20.842Z,63.83
2017-10-09T12:55:29.678Z,64.31
2017-10-09T12:56:38.512Z,64.34
2017-10-09T12:57:47.347Z,64.59
2017-10-09T12:58:56.186Z,64.82
2017-10-09T13:00:05.338Z,65.01
2017-10-09T13:01:14.168Z,64.72
2017-10-09T13:02:23.008Z,65.11
2017-10-09T13:03:31.837Z,64.82
2017-10-09T13:04:40.666Z,65.01
2017-10-09T13:05:49.829Z,64.82
2017-10-09T13:06:58.663Z,65.11
2017-10-09T13:08:07.499Z,65.3
2017-10-09T13:09:16.338Z,65.3
2017-10-09T13:10:25.167Z,65.77
2017-10-09T13:11:34.002Z,65.87
2017-10-09T13:12:42.835Z,65.97
2017-10-09T13:13:51.671Z,66.54
2017-10-09T13:15:00.503Z,66.54
2017-10-09T13:16:09.336Z,67.11
2017-10-09T13:17:18.178Z,67.59
2017-10-09T13:18:27.011Z,68.64
2017-10-09T13:19:35.849Z,68.55
2017-10-09T13:20:44.688Z,68.84
2017-10-09T13:21:53.516Z,69.12
2017-10-09T13:23:02.354Z,69.5
2017-10-09T13:24:11.185Z,69.79
2017-10-09T13:25:20.022Z,69.7
2017-10-09T13:26:28.857Z,69.89
2017-10-09T13:27:37.696Z,70.46
2017-10-09T13:28:46.527Z,70.17
2017-10-09T13:29:55.364Z,70.23
2017-10-09T13:31:04.199Z,70.9
2017-10-09T13:32:13.033Z,70.94
2017-10-09T13:33:21.871Z,70.9
2017-10-09T13:34:30.702Z,71.19
2017-10-09T13:35:39.531Z,71.76
2017-10-09T13:36:48.367Z,71.7
2017-10-09T13:37:57.207Z,71.86
2017-10-09T13:39:06.041Z,72.18
2017-10-09T13:40:14.877Z,72.05
2017-10-09T13:41:23.709Z,72.24
2017-10-09T13:42:32.535Z,72.62
2017-10-09T13:43:41.373Z,72.53
2017-10-09T13:44:50.207Z,72.53
2017-10-09T13:45:59.046Z,73
2017-10-09T13:47:07.876Z,73.1
2017-10-09T13:48:16.713Z,73.29
2017-10-09T13:49:25.545Z,73.71
2017-10-09T13:50:34.378Z,73.43
2017-10-09T13:51:43.210Z,73.77
2017-10-09T13:52:52.049Z,73.77
2017-10-09T13:54:01.529Z,73.77
2017-10-09T13:55:10.363Z,73.67
2017-10-09T13:56:19.198Z,73.96
2017-10-09T13:57:28.033Z,74.24
2017-10-09T13:58:36.868Z,74.24
2017-10-09T13:59:45.696Z,74.24
2017-10-09T14:00:54.531Z,74.82
2017-10-09T14:02:03.363Z,74.44
2017-10-09T14:03:12.201Z,74.63
2017-10-09T14:04:21.359Z,74.63
2017-10-09T14:05:30.191Z,74.73
2017-10-09T14:06:39.025Z,75.1
2017-10-09T14:07:47.859Z,75.39
2017-10-09T14:08:56.695Z,76.35
2017-10-09T14:10:05.531Z,76.35
2017-10-09T14:11:14.684Z,78.26
2017-10-09T14:12:23.515Z,85.81
2017-10-09T14:13:32.348Z,91.35
2017-10-09T14:14:41.184Z,95.32
2017-10-09T14:15:50.023Z,99.04
2017-10-09T14:16:58.858Z,99.99
2017-10-09T14:18:07.689Z,99.99
2017-10-09T14:19:16.842Z,99.99
2017-10-09T14:20:25.683Z,99.99
2017-10-09T14:21:34.516Z,99.99
2017-10-09T14:22:43.350Z,99.99
2017-10-09T14:23:52.182Z,99.99
2017-10-09T14:25:01.345Z,99.99
2017-10-09T14:26:10.176Z,99.99
2017-10-09T14:27:19.014Z,99.99
2017-10-09T14:28:27.850Z,99.99
2017-10-09T14:29:36.680Z,99.99
2017-10-09T14:30:45.507Z,99.99
2017-10-09T14:39:57.157Z,99.99
2017-10-09T14:41:05.990Z,99.99
2017-10-09T14:42:14.827Z,99.99
2017-10-09T14:43:23.658Z,99.99
2017-10-09T14:44:32.486Z,99.99
2017-10-09T14:45:41.322Z,99.99
2017-10-09T14:46:50.152Z,99.99
2017-10-09T14:47:58.992Z,99.99
2017-10-09T14:49:07.827Z,99.99
2017-10-09T14:50:16.657Z,99.99
2017-10-09T14:51:25.614Z,99.99
2017-10-09T14:52:34.324Z,99.99
2017-10-09T14:53:43.155Z,99.99
2017-10-09T14:54:51.989Z,99.99
2017-10-09T14:56:00.825Z,99.99
2017-10-09T14:57:09.656Z,99.99
2017-10-09T14:58:18.487Z,99.99